< < Back
Terminal Aerodrome Forecast


Current Version              Previous Versions:   1  2  3  4  5  6  7  8  9  

Terminal Aerodrome Forecast

458
FTUS42 KCHS 292001 AAB
TAFCHS
TAF AMD
KCHS 292001Z 2920/3018 14007KT P6SM VCTS SCT025CB BKN045
     FM292130 14008KT P6SM VCSH SCT025 BKN040
     FM300100 16003KT P6SM FEW030 SCT100
     FM301430 20006KT P6SM SCT025 BKN050=



Latest METAR

883
SAUS80 KWBC 292300 CCA
MTRCHS
METAR KCHS 292256Z 19009KT 10SM FEW020 SCT110 BKN200 27/24 A2993 RMK AO2
RAE09 SLP134 P0000 T02670239


USA.gov is the U.S. government's official web portal to all federal, state and local government web resources and services.